Time;durP1;ratioP1;P1;durP2;ratioP2;P2;SDS_P1;SDS_P2;PMS_P1;PMS_P2;Temp;Humidity;BMP_temperature;BMP_pressure;BME280_temperature;BME280_humidity;BME280_pressure;Samples;Min_cycle;Max_cycle;Signal;HPM_P1;HPM_P2
2023/06/30 00:01:52;;;;;;;8.20;5.25;;;;;;;25.77;47.76;100928.03;6165490;23;20313;-80
2023/06/30 00:04:27;;;;;;;7.32;5.10;;;;;;;25.72;47.76;100936.06;6142723;23;20031;-81
2023/06/30 00:06:56;;;;;;;10.77;5.32;;;;;;;25.47;48.28;100900.00;6175816;23;20654;-79
2023/06/30 00:09:24;;;;;;;9.57;4.50;;;;;;;25.65;49.39;100907.28;6191185;23;20020;-81
2023/06/30 00:12:00;;;;;;;8.93;5.13;;;;;;;25.83;48.69;100933.63;6173982;23;20325;-81
2023/06/30 00:14:33;;;;;;;6.22;5.07;;;;;;;25.68;48.94;100907.69;6156443;23;20341;-80
2023/06/30 00:17:02;;;;;;;11.05;5.20;;;;;;;25.77;49.16;100922.59;6192744;23;20012;-78
2023/06/30 00:19:31;;;;;;;7.88;5.03;;;;;;;25.54;48.74;100860.81;6150601;23;20489;-81
2023/06/30 00:21:59;;;;;;;14.82;6.03;;;;;;;26.03;48.62;100920.63;6180806;23;20518;-80
2023/06/30 00:24:29;;;;;;;8.38;5.00;;;;;;;25.73;49.09;100860.75;6160142;23;20039;-79
2023/06/30 00:26:55;;;;;;;7.13;4.85;;;;;;;26.33;50.30;100919.75;6173136;23;20262;-78
2023/06/30 00:29:22;;;;;;;10.77;5.20;;;;;;;26.29;49.63;100924.00;6148462;23;20242;-79
2023/06/30 00:31:49;;;;;;;11.55;5.32;;;;;;;26.05;48.73;100915.78;6187410;23;20404;-80
2023/06/30 00:34:22;;;;;;;9.40;5.15;;;;;;;26.07;49.48;100893.78;6100061;23;20468;-81
2023/06/30 00:36:57;;;;;;;10.05;5.70;;;;;;;26.05;48.72;100901.38;6108097;23;20015;-80
2023/06/30 00:39:23;;;;;;;7.15;5.03;;;;;;;25.97;48.93;100883.44;6160055;23;20028;-80
2023/06/30 00:41:55;;;;;;;6.97;4.72;;;;;;;26.07;49.89;100894.63;6187339;23;20016;-79
2023/06/30 00:44:22;;;;;;;8.40;5.00;;;;;;;26.13;49.78;100896.41;6202571;23;20013;-80
2023/06/30 00:46:49;;;;;;;7.85;4.47;;;;;;;26.01;49.83;100890.09;6181341;23;20539;-79
2023/06/30 00:49:16;;;;;;;8.05;4.90;;;;;;;25.88;49.98;100874.00;6169798;23;20086;-78
2023/06/30 00:51:42;;;;;;;5.80;4.72;;;;;;;26.00;50.46;100888.44;6179041;23;20543;-78
2023/06/30 00:54:15;;;;;;;5.90;4.75;;;;;;;26.05;49.43;100876.88;6145010;23;20200;-80
2023/06/30 00:56:47;;;;;;;11.07;5.18;;;;;;;25.71;49.13;100847.41;6161109;23;20020;-78
2023/06/30 00:59:14;;;;;;;8.63;4.95;;;;;;;25.96;49.53;100898.13;6147672;23;20232;-79
2023/06/30 01:01:56;;;;;;;6.95;5.10;;;;;;;25.91;48.95;100879.78;6165743;23;20237;-80
2023/06/30 01:04:39;;;;;;;9.27;5.47;;;;;;;25.92;48.85;100896.91;6167839;23;20151;-80
2023/06/30 01:07:36;;;;;;;9.23;4.85;;;;;;;25.74;49.65;100890.44;6160499;23;20413;-80
2023/06/30 01:10:15;;;;;;;9.95;5.72;;;;;;;25.58;49.89;100891.06;6133773;23;20740;-81
2023/06/30 01:12:47;;;;;;;9.27;5.82;;;;;;;25.38;50.21;100886.72;6162077;23;20016;-81
2023/06/30 01:15:15;;;;;;;8.50;4.97;;;;;;;25.34;50.62;100892.81;6178610;23;20320;-81
2023/06/30 01:17:54;;;;;;;7.88;5.68;;;;;;;25.21;51.01;100882.94;6168739;23;20020;-79
2023/06/30 01:20:23;;;;;;;8.95;5.20;;;;;;;25.25;50.85;100881.44;6180555;23;20096;-82
2023/06/30 01:23:00;;;;;;;;;;;;;;;25.29;51.04;100885.38;6185127;23;20062;-80
2023/06/30 01:25:29;;;;;;;5.80;5.18;;;;;;;24.82;51.29;100817.13;6193624;23;20255;-80
2023/06/30 01:27:58;;;;;;;12.90;5.55;;;;;;;25.07;51.27;100863.22;6170514;23;20662;-80
2023/06/30 01:30:32;;;;;;;7.50;5.28;;;;;;;25.19;51.25;100882.34;6157496;23;20023;-82
2023/06/30 01:33:02;;;;;;;8.57;5.53;;;;;;;25.08;51.39;100861.34;6098142;23;20337;-80
2023/06/30 01:35:33;;;;;;;8.35;5.53;;;;;;;25.18;51.29;100875.25;6159411;23;20020;-81
2023/06/30 01:38:05;;;;;;;9.50;5.38;;;;;;;25.15;51.53;100876.50;6167632;23;20122;-82
2023/06/30 01:40:32;;;;;;;10.50;5.72;;;;;;;25.07;51.43;100874.06;6165129;23;20583;-79
2023/06/30 01:42:58;;;;;;;11.20;5.18;;;;;;;25.06;51.64;100866.16;6160507;23;20020;-81
2023/06/30 01:45:30;;;;;;;8.98;4.88;;;;;;;25.05;51.43;100854.47;6154091;23;20360;-81
2023/06/30 01:48:00;;;;;;;9.52;5.60;;;;;;;25.13;51.58;100850.63;6160608;23;20024;-82
2023/06/30 01:50:29;;;;;;;7.90;5.07;;;;;;;24.94;51.39;100815.31;6158628;23;20020;-80
2023/06/30 01:52:59;;;;;;;9.45;5.20;;;;;;;25.18;51.43;100875.25;6195786;23;20412;-79
2023/06/30 01:55:26;;;;;;;9.27;4.70;;;;;;;24.81;51.86;100818.19;6158892;23;20184;-79
2023/06/30 01:57:56;;;;;;;8.68;6.05;;;;;;;25.16;51.90;100866.47;6161148;23;20371;-82
2023/06/30 02:00:23;;;;;;;7.00;5.40;;;;;;;25.12;51.93;100862.53;6171861;23;20471;-80
2023/06/30 02:02:50;;;;;;;12.60;5.25;;;;;;;24.98;51.81;100839.28;6184344;23;20885;-80
2023/06/30 02:05:19;;;;;;;7.75;4.93;;;;;;;25.02;52.06;100843.22;6191796;23;20628;-79
2023/06/30 02:07:45;;;;;;;8.85;6.47;;;;;;;24.83;51.62;100807.94;6201631;23;20378;-79
2023/06/30 02:10:12;;;;;;;10.38;4.97;;;;;;;25.15;51.41;100873.78;6184953;23;20099;-81
2023/06/30 02:12:48;;;;;;;12.77;5.60;;;;;;;24.89;51.76;100828.75;6167673;23;20397;-82
2023/06/30 02:15:19;;;;;;;12.25;5.78;;;;;;;24.84;51.81;100831.31;6162830;23;20026;-80
2023/06/30 02:17:46;;;;;;;7.22;5.13;;;;;;;25.14;51.31;100871.28;6166083;23;20301;-80
2023/06/30 02:20:13;;;;;;;7.50;5.60;;;;;;;25.13;51.45;100873.19;6168704;23;20091;-80
2023/06/30 02:22:39;;;;;;;7.45;5.22;;;;;;;24.80;51.05;100799.41;6178561;23;20355;-79
2023/06/30 02:25:09;;;;;;;12.18;5.70;;;;;;;25.14;51.33;100860.44;6151456;23;20340;-81
2023/06/30 02:27:36;;;;;;;11.95;5.57;;;;;;;25.26;51.26;100872.22;6191741;23;20456;-79
2023/06/30 02:30:07;;;;;;;6.82;5.18;;;;;;;25.02;51.63;100837.78;6140681;23;20020;-79
2023/06/30 02:32:37;;;;;;;12.48;5.22;;;;;;;25.19;51.70;100862.50;6147823;23;20023;-79
2023/06/30 02:35:06;;;;;;;7.40;4.90;;;;;;;24.73;52.55;100783.19;6152405;23;20027;-80
2023/06/30 02:37:36;;;;;;;7.38;5.32;;;;;;;25.09;52.27;100833.13;6138722;23;20400;-81
2023/06/30 02:40:04;;;;;;;8.50;5.32;;;;;;;24.85;51.74;100792.22;6197447;23;20508;-80
2023/06/30 02:42:39;;;;;;;11.68;5.55;;;;;;;25.15;51.21;100826.78;6155010;23;20254;-81
2023/06/30 02:45:06;;;;;;;7.10;4.97;;;;;;;25.26;51.15;100847.78;6157947;23;20111;-80
2023/06/30 02:47:44;;;;;;;9.77;5.60;;;;;;;25.38;51.73;100848.66;6152059;23;20074;-79
2023/06/30 02:50:26;;;;;;;6.25;5.25;;;;;;;25.35;51.46;100843.69;6137509;23;20890;-81
2023/06/30 02:53:01;;;;;;;5.70;4.97;;;;;;;25.41;51.47;100847.38;6149419;23;20334;-81
2023/06/30 02:55:33;;;;;;;8.73;4.57;;;;;;;25.36;51.33;100833.66;6151812;23;20560;-81
2023/06/30 02:58:04;;;;;;;10.10;5.07;;;;;;;25.44;51.15;100841.50;6147985;23;20020;-81
2023/06/30 03:00:34;;;;;;;8.75;5.60;;;;;;;25.35;51.01;100827.38;6170137;23;20315;-82
2023/06/30 03:03:04;;;;;;;10.60;5.18;;;;;;;25.32;50.75;100816.16;6168500;23;20031;-81
2023/06/30 03:05:34;;;;;;;9.32;5.32;;;;;;;25.46;50.97;100843.97;6161627;23;20038;-83
2023/06/30 03:08:04;;;;;;;7.72;5.72;;;;;;;25.34;51.08;100831.19;6174234;23;20095;-81
2023/06/30 03:10:33;;;;;;;6.50;5.38;;;;;;;25.19;50.96;100805.44;6130919;23;20055;-80
2023/06/30 03:13:00;;;;;;;10.23;5.40;;;;;;;25.37;51.11;100838.88;6166722;23;20446;-80
2023/06/30 03:15:27;;;;;;;9.48;5.80;;;;;;;25.37;51.43;100836.16;6170251;23;20317;-79
2023/06/30 03:17:55;;;;;;;7.82;5.40;;;;;;;24.92;51.43;100749.53;6132164;23;20303;-78
2023/06/30 03:20:27;;;;;;;8.88;5.18;;;;;;;25.37;51.26;100819.03;6164473;23;20074;-81
2023/06/30 03:22:56;;;;;;;9.98;5.32;;;;;;;25.30;51.22;100816.38;6171791;23;20476;-79
2023/06/30 03:25:23;;;;;;;13.52;6.22;;;;;;;25.30;50.95;100813.66;6181660;23;20024;-78
2023/06/30 03:27:50;;;;;;;9.73;5.70;;;;;;;25.28;51.29;100821.22;6146527;23;20777;-79
2023/06/30 03:30:17;;;;;;;6.32;5.15;;;;;;;25.18;52.18;100799.19;6155513;23;20020;-80
2023/06/30 03:32:46;;;;;;;17.00;6.03;;;;;;;25.31;51.08;100820.75;6171313;23;20376;-79
2023/06/30 03:35:13;;;;;;;9.20;5.30;;;;;;;25.25;51.26;100810.81;6183972;23;20384;-78
2023/06/30 03:37:40;;;;;;;8.18;5.50;;;;;;;25.37;51.84;100825.28;6155283;23;20024;-81
2023/06/30 03:40:07;;;;;;;9.50;5.70;;;;;;;25.28;52.14;100813.06;6152782;23;20055;-81
2023/06/30 03:42:38;;;;;;;7.78;6.65;;;;;;;25.50;51.54;100834.31;6151806;23;20016;-82
2023/06/30 03:45:10;;;;;;;12.82;6.75;;;;;;;25.28;51.27;100815.78;6178199;23;20024;-81
2023/06/30 03:47:38;;;;;;;9.65;6.00;;;;;;;25.03;51.23;100779.72;6189363;23;20268;-81
2023/06/30 03:50:05;;;;;;;11.75;6.65;;;;;;;25.19;51.71;100810.88;6159143;23;20221;-81
2023/06/30 03:52:38;;;;;;;14.20;6.65;;;;;;;24.93;51.67;100770.22;6156258;23;20040;-82
2023/06/30 03:55:05;;;;;;;11.60;6.73;;;;;;;25.29;51.53;100828.31;6150047;23;20103;-82
2023/06/30 03:57:37;;;;;;;12.65;7.68;;;;;;;25.19;51.50;100805.44;6147723;23;20448;-79
2023/06/30 04:00:12;;;;;;;10.90;7.45;;;;;;;25.37;52.00;100821.75;6113213;23;20059;-82
2023/06/30 04:02:47;;;;;;;15.43;7.00;;;;;;;25.30;51.61;100810.94;6159711;23;20547;-83
2023/06/30 04:05:13;;;;;;;11.27;6.47;;;;;;;25.40;51.57;100818.56;6141400;23;20798;-80
2023/06/30 04:07:40;;;;;;;10.63;7.57;;;;;;;25.46;51.80;100828.50;6159343;23;20453;-79
2023/06/30 04:10:07;;;;;;;16.60;7.90;;;;;;;25.46;51.38;100808.66;6130868;23;20025;-81
2023/06/30 04:12:34;;;;;;;12.38;7.75;;;;;;;24.80;51.45;100707.91;6151450;23;20078;-81
2023/06/30 04:15:07;;;;;;;12.73;8.00;;;;;;;25.38;51.87;100812.50;6143337;23;20150;-81
2023/06/30 04:17:34;;;;;;;14.00;8.70;;;;;;;25.54;51.60;100825.47;6158296;23;20314;-80
2023/06/30 04:20:03;;;;;;;24.50;10.15;;;;;;;25.41;51.44;100803.91;6157670;23;20020;-79
2023/06/30 04:22:32;;;;;;;17.83;8.95;;;;;;;25.37;51.89;100814.41;6154652;23;20021;-79
2023/06/30 04:25:03;;;;;;;13.93;9.50;;;;;;;25.33;52.13;100813.19;6139080;23;20433;-82
2023/06/30 04:27:37;;;;;;;15.45;10.30;;;;;;;25.15;51.86;100767.03;6145219;23;20104;-82
2023/06/30 04:30:10;;;;;;;17.92;12.10;;;;;;;25.30;51.84;100786.50;6152802;23;20244;-82
2023/06/30 04:32:38;;;;;;;17.13;12.65;;;;;;;25.24;52.15;100779.25;6149875;23;20348;-80
2023/06/30 04:35:11;;;;;;;26.63;13.23;;;;;;;25.34;52.10;100804.00;6181886;23;20025;-82
2023/06/30 04:37:44;;;;;;;15.88;12.02;;;;;;;25.25;52.77;100805.38;6165459;23;20321;-80
2023/06/30 04:40:10;;;;;;;20.63;11.70;;;;;;;25.18;53.27;100782.91;6163763;23;20035;-78
2023/06/30 04:42:41;;;;;;;17.50;11.48;;;;;;;25.22;53.23;100794.97;6186456;23;20108;-80
2023/06/30 04:45:08;;;;;;;22.48;13.52;;;;;;;25.29;53.03;100806.59;6156808;23;20103;-80
2023/06/30 04:47:35;;;;;;;24.60;14.93;;;;;;;25.22;52.82;100783.25;6152781;23;20055;-82
2023/06/30 04:50:01;;;;;;;20.20;13.70;;;;;;;25.15;53.30;100772.47;6133076;23;20324;-80
2023/06/30 04:52:33;;;;;;;29.80;14.48;;;;;;;25.07;53.11;100761.88;6154762;23;20202;-80
2023/06/30 04:54:59;;;;;;;20.80;14.38;;;;;;;25.22;53.43;100784.09;6154044;23;20270;-79
2023/06/30 04:57:27;;;;;;;18.17;13.35;;;;;;;25.24;53.17;100781.97;6149555;23;20017;-81
2023/06/30 04:59:54;;;;;;;16.88;14.15;;;;;;;25.41;53.18;100808.50;6163358;23;20021;-81
2023/06/30 05:02:21;;;;;;;25.17;13.75;;;;;;;25.29;53.28;100790.28;6145797;23;20016;-79
2023/06/30 05:04:52;;;;;;;25.33;13.98;;;;;;;25.38;53.48;100810.63;6128021;23;20210;-82
2023/06/30 05:07:19;;;;;;;28.80;15.27;;;;;;;25.26;53.30;100801.59;6156878;23;20100;-81
2023/06/30 05:09:46;;;;;;;29.08;16.58;;;;;;;25.31;53.56;100804.44;6144807;23;20048;-82
2023/06/30 05:12:15;;;;;;;21.08;14.85;;;;;;;24.89;53.93;100744.56;6157310;23;20232;-83
2023/06/30 05:14:41;;;;;;;25.15;14.77;;;;;;;25.13;54.17;100790.88;6170266;23;20511;-81
2023/06/30 05:17:08;;;;;;;22.00;16.02;;;;;;;25.04;53.87;100768.59;6167943;23;20090;-81
2023/06/30 05:19:36;;;;;;;23.95;14.88;;;;;;;24.95;54.20;100768.09;6163924;23;20188;-80
2023/06/30 05:22:05;;;;;;;20.02;14.13;;;;;;;25.15;54.48;100775.19;6165646;23;20130;-82
2023/06/30 05:24:33;;;;;;;23.67;15.20;;;;;;;25.15;54.22;100775.19;6179536;23;20071;-81
2023/06/30 05:27:00;;;;;;;22.52;12.30;;;;;;;25.13;54.19;100763.72;6177299;23;20094;-80
2023/06/30 05:29:30;;;;;;;25.80;14.23;;;;;;;25.28;54.13;100772.31;6146439;23;20446;-80
2023/06/30 05:32:01;;;;;;;19.35;14.23;;;;;;;25.12;54.11;100743.00;6141337;23;20020;-82
2023/06/30 05:34:33;;;;;;;24.40;15.75;;;;;;;25.25;54.14;100750.22;6144391;23;20492;-82
2023/06/30 05:37:06;;;;;;;19.83;16.45;;;;;;;25.15;54.27;100739.88;6146254;23;20276;-79
2023/06/30 05:39:32;;;;;;;21.23;15.52;;;;;;;24.98;54.82;100717.09;6162677;23;20059;-79
2023/06/30 05:42:02;;;;;;;24.05;17.02;;;;;;;25.12;55.18;100740.31;6160229;23;20196;-81
2023/06/30 05:44:29;;;;;;;21.17;15.73;;;;;;;25.20;54.88;100741.94;6179003;23;20020;-80
2023/06/30 05:46:56;;;;;;;19.13;16.17;;;;;;;25.31;54.57;100752.81;6160076;23;20358;-80
2023/06/30 05:49:24;;;;;;;21.45;15.27;;;;;;;24.77;54.35;100677.69;6165100;23;20074;-79
2023/06/30 05:51:51;;;;;;;24.75;15.80;;;;;;;25.06;54.07;100728.47;6170477;23;20078;-79
2023/06/30 05:54:18;;;;;;;22.52;14.57;;;;;;;24.99;54.62;100732.34;6160403;23;20016;-80
2023/06/30 05:56:51;;;;;;;26.70;14.57;;;;;;;24.95;54.99;100735.53;6151002;23;20095;-81
2023/06/30 05:59:19;;;;;;;21.83;14.57;;;;;;;25.02;55.38;100751.72;6136151;23;20017;-79
2023/06/30 06:01:49;;;;;;;25.20;16.15;;;;;;;25.22;54.84;100762.38;6146788;23;20016;-80
2023/06/30 06:04:18;;;;;;;24.65;16.40;;;;;;;25.26;54.84;100763.56;6179787;23;20452;-79
2023/06/30 06:06:50;;;;;;;29.15;15.73;;;;;;;25.31;55.18;100771.00;6165389;23;20074;-81
2023/06/30 06:09:18;;;;;;;;;;;;;;;25.32;54.89;100775.41;6153603;23;20020;-81
2023/06/30 06:11:45;;;;;;;24.80;14.13;;;;;;;25.23;54.90;100764.00;6219376;23;19920;-80
2023/06/30 06:14:11;;;;;;;21.98;14.27;;;;;;;25.30;55.32;100775.63;6188221;23;20099;-79
2023/06/30 06:16:38;;;;;;;21.33;14.25;;;;;;;25.31;55.12;100771.00;6179436;23;20027;-80
2023/06/30 06:19:05;;;;;;;20.75;13.85;;;;;;;25.29;55.68;100776.69;6173191;23;20447;-80
2023/06/30 06:21:35;;;;;;;25.60;15.52;;;;;;;25.40;55.46;100775.06;6181405;23;20163;-80
2023/06/30 06:24:07;;;;;;;20.95;16.02;;;;;;;25.47;54.69;100780.44;6175776;23;20020;-80
2023/06/30 06:26:34;;;;;;;29.00;18.52;;;;;;;25.53;54.52;100793.06;6159275;23;20587;-78
2023/06/30 06:29:00;;;;;;;30.10;18.38;;;;;;;25.54;54.78;100797.47;6155556;23;20063;-79
2023/06/30 06:31:30;;;;;;;29.23;16.38;;;;;;;25.31;54.72;100776.44;6155410;23;20058;-78
2023/06/30 06:33:59;;;;;;;32.63;17.38;;;;;;;25.47;55.20;100807.59;6186603;23;20062;-81
2023/06/30 06:36:26;;;;;;;28.77;15.85;;;;;;;25.58;55.35;100814.97;6193599;23;20036;-79
2023/06/30 06:38:53;;;;;;;28.10;17.05;;;;;;;25.52;55.31;100799.59;6167258;23;20456;-81
2023/06/30 06:41:20;;;;;;;27.92;16.95;;;;;;;25.67;55.69;100813.56;6165973;23;20095;-78
2023/06/30 06:43:53;;;;;;;23.92;16.50;;;;;;;25.79;55.51;100828.03;6130156;23;20024;-81
2023/06/30 06:46:22;;;;;;;34.10;16.05;;;;;;;25.71;55.15;100828.38;6148875;23;20024;-80
2023/06/30 06:48:52;;;;;;;22.80;15.82;;;;;;;25.60;55.67;100815.56;6173242;23;20364;-82
2023/06/30 06:51:19;;;;;;;19.63;13.38;;;;;;;25.74;55.50;100846.94;6171875;23;20452;-80
2023/06/30 06:53:45;;;;;;;18.60;14.05;;;;;;;25.68;55.12;100826.13;6170327;23;20016;-79
2023/06/30 06:56:12;;;;;;;22.00;16.65;;;;;;;25.89;54.94;100840.28;6219439;23;20028;-79
2023/06/30 06:58:39;;;;;;;18.35;12.02;;;;;;;24.73;55.12;100656.44;6184110;23;20095;-80
2023/06/30 07:01:13;;;;;;;26.10;16.02;;;;;;;25.71;54.61;100792.22;6146924;23;20209;-82
2023/06/30 07:03:46;;;;;;;23.83;16.13;;;;;;;26.05;54.28;100834.19;6173394;23;20036;-77
2023/06/30 07:06:13;;;;;;;17.25;11.05;;;;;;;26.12;54.53;100804.97;6186883;23;20020;-80
2023/06/30 07:08:39;;;;;;;19.67;12.88;;;;;;;26.13;53.96;100771.25;6188058;23;20440;-79
2023/06/30 07:11:06;;;;;;;20.55;13.15;;;;;;;26.40;53.97;100806.16;6141947;23;20110;-79
2023/06/30 07:13:33;;;;;;;21.80;14.10;;;;;;;26.72;53.80;100822.16;6165332;23;20027;-80
2023/06/30 07:16:00;;;;;;;18.92;15.95;;;;;;;26.67;53.27;100798.38;6162371;23;20226;-81
2023/06/30 07:18:27;;;;;;;22.67;14.73;;;;;;;26.59;53.24;100788.69;6145269;23;20020;-80
2023/06/30 07:20:54;;;;;;;20.35;14.63;;;;;;;26.81;52.92;100818.03;6165368;23;20016;-80
2023/06/30 07:23:25;;;;;;;19.65;11.80;;;;;;;26.46;53.04;100755.38;6192604;23;20269;-81
2023/06/30 07:26:03;;;;;;;16.60;10.18;;;;;;;27.02;53.52;100801.03;6165922;23;20020;-81
2023/06/30 07:28:38;;;;;;;18.55;14.23;;;;;;;26.84;52.53;100780.22;6194076;23;20024;-82
2023/06/30 07:31:06;;;;;;;20.23;11.52;;;;;;;26.82;52.47;100784.25;6179518;23;20024;-82
2023/06/30 07:33:32;;;;;;;19.27;13.15;;;;;;;26.78;52.31;100785.81;6151802;23;20287;-81
2023/06/30 07:35:59;;;;;;;11.13;9.43;;;;;;;27.17;52.52;100791.53;6173110;23;20020;-80
2023/06/30 07:38:26;;;;;;;11.35;9.35;;;;;;;27.32;51.82;100788.31;6182649;23;20155;-81
2023/06/30 07:40:54;;;;;;;15.45;11.05;;;;;;;27.19;51.32;100816.69;6157012;23;20236;-80
2023/06/30 07:43:30;;;;;;;17.77;10.77;;;;;;;27.06;51.50;100753.19;6177582;23;20012;-79
2023/06/30 07:45:56;;;;;;;23.25;15.85;;;;;;;27.31;50.76;100806.56;6185676;23;20027;-79
2023/06/30 07:48:23;;;;;;;14.98;12.57;;;;;;;27.19;51.16;100803.88;6132295;23;20105;-81
2023/06/30 07:50:59;;;;;;;25.02;16.58;;;;;;;27.41;50.54;100795.03;6135844;23;20352;-78
2023/06/30 07:53:38;;;;;;;26.42;17.15;;;;;;;27.06;50.09;100771.41;6180416;23;20087;-82
2023/06/30 07:56:05;;;;;;;27.13;16.83;;;;;;;27.17;50.28;100783.34;6195374;23;20031;-81
2023/06/30 07:58:33;;;;;;;22.20;16.50;;;;;;;27.26;49.88;100790.94;6179057;23;20031;-81
2023/06/30 08:01:00;;;;;;;26.35;17.65;;;;;;;26.56;49.95;100668.56;6166675;23;20456;-79
2023/06/30 08:03:28;;;;;;;26.65;17.65;;;;;;;27.19;49.95;100786.72;6160214;23;20023;-82
2023/06/30 08:06:00;;;;;;;18.95;15.88;;;;;;;27.09;50.99;100776.41;6173613;23;20461;-79
2023/06/30 08:08:32;;;;;;;21.00;14.80;;;;;;;27.14;50.83;100778.38;6177804;23;20252;-79
2023/06/30 08:11:04;;;;;;;17.55;12.48;;;;;;;27.45;50.41;100764.31;6183618;23;20028;-81
2023/06/30 08:13:34;;;;;;;29.40;17.60;;;;;;;27.31;50.46;100779.31;6168216;23;20342;-80
2023/06/30 08:16:05;;;;;;;22.27;13.93;;;;;;;27.47;50.08;100781.22;6174343;23;20313;-80
2023/06/30 08:18:32;;;;;;;18.30;12.50;;;;;;;27.76;49.82;100774.94;6156846;23;20021;-80
2023/06/30 08:21:05;;;;;;;15.52;12.10;;;;;;;27.43;50.77;100782.81;6157885;23;20020;-82
2023/06/30 08:23:37;;;;;;;18.85;12.52;;;;;;;27.73;50.38;100786.34;6126051;23;20564;-81
2023/06/30 08:26:04;;;;;;;19.20;13.05;;;;;;;27.74;50.03;100790.72;6168591;23;20027;-80
2023/06/30 08:28:36;;;;;;;18.35;12.23;;;;;;;27.78;49.91;100759.16;6155098;23;20650;-82
2023/06/30 08:31:07;;;;;;;16.33;12.48;;;;;;;27.87;49.95;100761.25;6153843;23;20017;-81
2023/06/30 08:33:37;;;;;;;16.52;10.70;;;;;;;28.08;50.08;100778.75;6139839;23;20075;-79
2023/06/30 08:36:07;;;;;;;16.27;10.93;;;;;;;28.03;49.51;100775.13;6175594;23;20313;-81
2023/06/30 08:38:38;;;;;;;14.65;10.75;;;;;;;27.74;49.33;100728.78;6169488;23;20383;-79
2023/06/30 08:41:06;;;;;;;19.85;12.52;;;;;;;27.70;50.02;100774.03;6171752;23;20021;-82
2023/06/30 08:43:34;;;;;;;16.60;10.93;;;;;;;27.36;50.32;100694.09;6163679;23;20029;-81
2023/06/30 08:46:05;;;;;;;23.42;12.52;;;;;;;26.51;50.53;100603.91;6159744;23;20277;-80
2023/06/30 08:48:33;;;;;;;33.65;16.40;;;;;;;27.07;50.75;100708.50;6160851;23;20243;-81
2023/06/30 08:51:04;;;;;;;25.17;14.07;;;;;;;27.52;50.98;100785.13;6167022;23;20017;-82
2023/06/30 08:53:35;;;;;;;19.77;13.38;;;;;;;27.53;51.53;100798.53;6166491;23;20083;-80
2023/06/30 08:56:06;;;;;;;18.20;13.05;;;;;;;27.64;51.28;100791.34;6172743;23;20105;-81
2023/06/30 08:58:37;;;;;;;17.90;12.05;;;;;;;26.97;51.73;100713.78;6158841;23;20050;-78
2023/06/30 09:01:04;;;;;;;22.50;12.25;;;;;;;27.40;51.42;100772.38;6111767;23;20067;-79
2023/06/30 09:03:37;;;;;;;22.23;16.50;;;;;;;27.05;51.05;100737.91;6156268;23;20629;-81
2023/06/30 09:06:11;;;;;;;22.40;13.05;;;;;;;26.96;51.59;100733.91;6157972;23;20464;-81
2023/06/30 09:09:03;;;;;;;31.42;14.50;;;;;;;27.37;51.52;100799.31;6188550;23;20026;-80
2023/06/30 09:11:31;;;;;;;;;;;;;;;27.20;54.76;100813.69;6189354;23;20044;-81
2023/06/30 09:14:02;;;;;;;19.02;11.32;;;;;;;27.02;52.92;100786.59;6145320;23;19922;-80
2023/06/30 09:16:31;;;;;;;26.75;15.60;;;;;;;26.81;55.36;100758.09;6154837;23;20024;-81
2023/06/30 09:19:01;;;;;;;17.50;11.48;;;;;;;27.30;54.51;100831.31;6168783;23;20017;-80
2023/06/30 09:21:28;;;;;;;24.90;13.38;;;;;;;27.19;54.92;100835.75;6134926;23;20260;-80
2023/06/30 09:23:54;;;;;;;25.73;14.57;;;;;;;27.08;55.33;100835.50;6158959;23;20021;-81
2023/06/30 09:26:34;;;;;;;18.17;14.18;;;;;;;26.95;54.29;100829.50;6146008;23;20024;-81
2023/06/30 09:29:12;;;;;;;;;;;;;;;26.75;56.38;100802.63;6122104;23;20020;-82
2023/06/30 09:31:40;;;;;;;18.05;11.23;;;;;;;26.93;55.36;100848.78;6142113;23;20351;-83
2023/06/30 09:34:09;;;;;;;14.43;10.55;;;;;;;27.19;54.46;100863.81;6150608;23;20400;-82
2023/06/30 09:36:52;;;;;;;15.38;10.50;;;;;;;26.99;55.75;100858.75;6152722;23;20029;-82
2023/06/30 09:39:19;;;;;;;15.77;11.20;;;;;;;26.99;55.77;100864.19;6149295;23;20099;-81
2023/06/30 09:41:49;;;;;;;19.45;10.95;;;;;;;26.91;55.92;100872.72;6145813;23;20016;-83
2023/06/30 09:44:20;;;;;;;20.63;13.20;;;;;;;26.76;56.35;100864.22;6170592;23;20016;-80
2023/06/30 09:46:51;;;;;;;16.73;10.37;;;;;;;26.97;56.05;100860.88;6155604;23;20422;-81
2023/06/30 09:49:36;;;;;;;13.48;9.30;;;;;;;27.03;54.29;100810.88;6128114;23;20795;-81
2023/06/30 09:52:08;;;;;;;33.55;14.35;;;;;;;26.70;55.78;100824.28;6146395;23;20023;-81
2023/06/30 09:54:48;;;;;;;15.82;12.23;;;;;;;26.93;56.42;100867.03;6165799;23;20021;-84
2023/06/30 09:57:20;;;;;;;14.07;10.02;;;;;;;26.75;57.78;100862.53;6163840;23;20275;-85
2023/06/30 09:59:50;;;;;;;16.90;11.75;;;;;;;26.88;58.13;100878.66;6151269;23;20510;-83
2023/06/30 10:02:17;;;;;;;19.38;10.90;;;;;;;26.86;58.43;100892.50;6149672;23;20028;-83
2023/06/30 10:04:46;;;;;;;17.20;11.13;;;;;;;26.93;57.79;100889.66;6173062;23;20561;-83
2023/06/30 10:07:16;;;;;;;19.13;11.60;;;;;;;26.70;58.51;100893.22;6166779;23;20083;-84
2023/06/30 10:09:52;;;;;;;16.88;10.13;;;;;;;26.41;58.92;100879.44;6164464;23;20024;-82
2023/06/30 10:12:21;;;;;;;17.25;10.40;;;;;;;26.49;58.30;100852.94;6169289;23;20017;-83
2023/06/30 10:14:49;;;;;;;14.32;10.88;;;;;;;26.54;59.64;100872.97;6171642;23;20013;-80
2023/06/30 10:17:20;;;;;;;15.23;10.25;;;;;;;26.18;60.60;100863.88;6168377;23;20051;-83
2023/06/30 10:19:51;;;;;;;16.48;10.25;;;;;;;26.08;62.44;100863.63;6168793;23;20111;-82
2023/06/30 10:22:20;;;;;;;19.30;11.30;;;;;;;25.63;63.93;100808.81;6168273;23;20017;-84
2023/06/30 10:24:48;;;;;;;17.15;11.77;;;;;;;25.66;64.48;100822.81;6163464;23;20090;-81
2023/06/30 10:27:21;;;;;;;16.63;12.18;;;;;;;25.19;64.91;100761.97;6167417;23;20368;-83
2023/06/30 10:29:48;;;;;;;17.45;11.63;;;;;;;25.66;64.47;100833.69;6167496;23;20054;-81
2023/06/30 10:32:24;;;;;;;16.75;11.00;;;;;;;25.64;64.72;100824.09;6141548;23;20494;-80
2023/06/30 10:34:58;;;;;;;17.85;10.75;;;;;;;25.83;61.89;100775.91;6157155;23;20493;-80
2023/06/30 10:37:26;;;;;;;15.68;10.05;;;;;;;26.27;60.76;100803.69;6169114;23;20021;-82
2023/06/30 10:40:00;;;;;;;16.55;10.60;;;;;;;25.85;63.39;100739.28;6129705;23;20173;-82
2023/06/30 10:42:36;;;;;;;18.33;11.15;;;;;;;25.87;63.27;100703.72;6144384;23;20139;-83
2023/06/30 10:45:09;;;;;;;17.17;11.65;;;;;;;26.21;62.52;100779.09;6146256;23;20644;-83
2023/06/30 10:47:51;;;;;;;19.52;12.18;;;;;;;25.73;62.10;100684.88;6173016;23;20028;-83
2023/06/30 10:50:18;;;;;;;14.32;10.68;;;;;;;26.33;62.58;100756.47;6168870;23;20043;-82
2023/06/30 10:52:54;;;;;;;15.38;10.95;;;;;;;26.29;61.19;100738.94;6170606;23;20039;-81
2023/06/30 10:55:30;;;;;;;17.00;11.52;;;;;;;26.32;61.65;100754.81;6154391;23;20228;-81
2023/06/30 10:58:05;;;;;;;15.90;11.20;;;;;;;26.06;61.57;100750.66;6126253;23;20024;-83
2023/06/30 11:00:35;;;;;;;12.38;9.90;;;;;;;26.22;60.51;100760.84;6186433;23;20075;-83
2023/06/30 11:03:05;;;;;;;15.07;10.68;;;;;;;26.01;61.71;100716.84;6194682;23;20024;-82
2023/06/30 11:05:37;;;;;;;17.13;10.52;;;;;;;26.23;61.65;100765.22;6175651;23;20425;-81
2023/06/30 11:08:18;;;;;;;15.43;10.65;;;;;;;26.08;61.52;100756.72;6203408;23;20086;-80
2023/06/30 11:10:46;;;;;;;16.95;10.45;;;;;;;26.00;62.41;100756.00;6175189;23;20397;-82
2023/06/30 11:13:36;;;;;;;16.00;9.82;;;;;;;26.06;61.57;100754.22;6186560;23;20086;-83
2023/06/30 11:16:10;;;;;;;13.48;9.40;;;;;;;25.83;60.14;100705.19;6187095;23;20023;-83
2023/06/30 11:18:58;;;;;;;13.43;9.90;;;;;;;26.01;60.54;100748.66;6138587;23;20279;-82
2023/06/30 11:21:30;;;;;;;12.95;9.50;;;;;;;25.83;61.30;100733.25;6169291;23;20048;-81
2023/06/30 11:24:12;;;;;;;16.38;9.52;;;;;;;25.86;61.47;100770.88;6187746;23;20021;-82
2023/06/30 11:26:39;;;;;;;15.65;10.07;;;;;;;25.70;60.84;100756.00;6163550;23;20023;-84
2023/06/30 11:29:06;;;;;;;14.80;10.32;;;;;;;25.64;62.53;100754.25;6157648;23;20036;-81